sensor_id;sensor_type;location;lat;lon;timestamp;P1;durP1;ratioP1;P2;durP2;ratioP2
60426;SDS011;46274;47.168;27.604;2022-12-07T00:05:09;194.87;;;14.23;;
60426;SDS011;46274;47.168;27.604;2022-12-07T00:11:47;170.43;;;13.83;;
60426;SDS011;46274;47.168;27.604;2022-12-07T00:18:07;55.50;;;8.77;;
60426;SDS011;46274;47.168;27.604;2022-12-07T00:24:14;52.27;;;7.40;;
60426;SDS011;46274;47.168;27.604;2022-12-07T00:30:52;176.57;;;14.17;;
60426;SDS011;46274;47.168;27.604;2022-12-07T00:37:45;47.73;;;6.70;;
60426;SDS011;46274;47.168;27.604;2022-12-07T00:44:11;29.20;;;6.80;;
60426;SDS011;46274;47.168;27.604;2022-12-07T00:50:42;171.30;;;11.10;;
60426;SDS011;46274;47.168;27.604;2022-12-07T01:03:59;57.47;;;7.30;;
60426;SDS011;46274;47.168;27.604;2022-12-07T01:10:30;8.00;;;4.53;;
60426;SDS011;46274;47.168;27.604;2022-12-07T01:17:00;376.73;;;20.83;;
60426;SDS011;46274;47.168;27.604;2022-12-07T01:23:30;11.03;;;5.10;;
60426;SDS011;46274;47.168;27.604;2022-12-07T01:29:44;27.77;;;6.73;;
60426;SDS011;46274;47.168;27.604;2022-12-07T01:36:19;7.67;;;3.90;;
60426;SDS011;46274;47.168;27.604;2022-12-07T01:42:24;7.83;;;4.20;;
60426;SDS011;46274;47.168;27.604;2022-12-07T01:48:52;5.70;;;3.83;;
60426;SDS011;46274;47.168;27.604;2022-12-07T01:55:18;80.50;;;6.23;;
60426;SDS011;46274;47.168;27.604;2022-12-07T02:01:53;12.77;;;6.47;;
60426;SDS011;46274;47.168;27.604;2022-12-07T02:08:12;13.40;;;5.83;;
60426;SDS011;46274;47.168;27.604;2022-12-07T02:15:00;26.10;;;5.93;;
60426;SDS011;46274;47.168;27.604;2022-12-07T02:28:34;54.23;;;6.70;;
60426;SDS011;46274;47.168;27.604;2022-12-07T02:42:22;5.73;;;3.77;;
60426;SDS011;46274;47.168;27.604;2022-12-07T02:49:12;8.57;;;4.77;;
60426;SDS011;46274;47.168;27.604;2022-12-07T02:55:37;229.17;;;9.77;;
60426;SDS011;46274;47.168;27.604;2022-12-07T03:01:50;7.57;;;4.97;;
60426;SDS011;46274;47.168;27.604;2022-12-07T03:08:13;17.00;;;5.90;;
60426;SDS011;46274;47.168;27.604;2022-12-07T03:14:49;121.63;;;8.13;;
60426;SDS011;46274;47.168;27.604;2022-12-07T03:21:40;190.80;;;10.97;;
60426;SDS011;46274;47.168;27.604;2022-12-07T03:28:37;21.03;;;6.17;;
60426;SDS011;46274;47.168;27.604;2022-12-07T03:35:05;45.40;;;8.03;;
60426;SDS011;46274;47.168;27.604;2022-12-07T03:42:01;60.43;;;9.67;;
60426;SDS011;46274;47.168;27.604;2022-12-07T03:48:31;33.33;;;8.60;;
60426;SDS011;46274;47.168;27.604;2022-12-07T03:55:17;19.97;;;9.57;;
60426;SDS011;46274;47.168;27.604;2022-12-07T04:02:06;119.93;;;10.20;;
60426;SDS011;46274;47.168;27.604;2022-12-07T04:08:27;66.00;;;23.57;;
60426;SDS011;46274;47.168;27.604;2022-12-07T04:14:41;36.57;;;11.33;;
60426;SDS011;46274;47.168;27.604;2022-12-07T04:21:13;158.00;;;13.30;;
60426;SDS011;46274;47.168;27.604;2022-12-07T04:27:35;27.87;;;7.10;;
60426;SDS011;46274;47.168;27.604;2022-12-07T04:34:03;12.83;;;7.00;;
60426;SDS011;46274;47.168;27.604;2022-12-07T04:41:05;9.23;;;5.37;;
60426;SDS011;46274;47.168;27.604;2022-12-07T04:47:44;171.33;;;14.17;;
60426;SDS011;46274;47.168;27.604;2022-12-07T04:54:39;23.30;;;7.33;;
60426;SDS011;46274;47.168;27.604;2022-12-07T05:08:38;121.83;;;10.20;;
60426;SDS011;46274;47.168;27.604;2022-12-07T05:22:41;31.40;;;12.93;;
60426;SDS011;46274;47.168;27.604;2022-12-07T05:29:17;17.33;;;8.33;;
60426;SDS011;46274;47.168;27.604;2022-12-07T05:35:33;16.50;;;6.67;;
60426;SDS011;46274;47.168;27.604;2022-12-07T05:42:07;16.87;;;7.87;;
60426;SDS011;46274;47.168;27.604;2022-12-07T05:48:45;51.03;;;19.27;;
60426;SDS011;46274;47.168;27.604;2022-12-07T05:55:45;65.63;;;20.63;;
60426;SDS011;46274;47.168;27.604;2022-12-07T06:02:42;222.83;;;21.27;;
60426;SDS011;46274;47.168;27.604;2022-12-07T06:09:32;44.87;;;15.13;;
60426;SDS011;46274;47.168;27.604;2022-12-07T06:16:15;65.50;;;21.03;;
60426;SDS011;46274;47.168;27.604;2022-12-07T06:22:49;12.73;;;7.13;;
60426;SDS011;46274;47.168;27.604;2022-12-07T06:29:25;250.17;;;40.83;;
60426;SDS011;46274;47.168;27.604;2022-12-07T06:35:50;25.13;;;7.00;;
60426;SDS011;46274;47.168;27.604;2022-12-07T06:42:43;57.20;;;8.80;;
60426;SDS011;46274;47.168;27.604;2022-12-07T06:49:20;38.73;;;9.90;;
60426;SDS011;46274;47.168;27.604;2022-12-07T06:56:03;17.40;;;7.80;;
60426;SDS011;46274;47.168;27.604;2022-12-07T07:02:44;12.77;;;6.60;;
60426;SDS011;46274;47.168;27.604;2022-12-07T07:09:27;15.00;;;7.10;;
60426;SDS011;46274;47.168;27.604;2022-12-07T07:16:06;26.70;;;10.43;;
60426;SDS011;46274;47.168;27.604;2022-12-07T07:22:55;22.27;;;7.77;;
60426;SDS011;46274;47.168;27.604;2022-12-07T07:29:00;29.43;;;9.10;;
60426;SDS011;46274;47.168;27.604;2022-12-07T07:35:29;94.83;;;14.97;;
60426;SDS011;46274;47.168;27.604;2022-12-07T07:42:20;30.73;;;11.37;;
60426;SDS011;46274;47.168;27.604;2022-12-07T07:48:43;19.07;;;9.43;;
60426;SDS011;46274;47.168;27.604;2022-12-07T07:54:58;21.83;;;10.23;;
60426;SDS011;46274;47.168;27.604;2022-12-07T08:01:14;19.43;;;9.20;;
60426;SDS011;46274;47.168;27.604;2022-12-07T08:07:23;18.57;;;9.30;;
60426;SDS011;46274;47.168;27.604;2022-12-07T08:13:48;24.17;;;11.13;;
60426;SDS011;46274;47.168;27.604;2022-12-07T08:27:33;23.37;;;9.70;;
60426;SDS011;46274;47.168;27.604;2022-12-07T08:34:25;19.73;;;9.70;;
60426;SDS011;46274;47.168;27.604;2022-12-07T08:40:39;39.70;;;12.93;;
60426;SDS011;46274;47.168;27.604;2022-12-07T08:47:13;28.13;;;12.70;;
60426;SDS011;46274;47.168;27.604;2022-12-07T09:00:08;35.33;;;12.33;;
60426;SDS011;46274;47.168;27.604;2022-12-07T09:06:14;27.70;;;12.63;;
60426;SDS011;46274;47.168;27.604;2022-12-07T09:12:37;28.47;;;12.07;;
60426;SDS011;46274;47.168;27.604;2022-12-07T09:19:17;26.83;;;12.07;;
60426;SDS011;46274;47.168;27.604;2022-12-07T09:25:41;22.27;;;10.47;;
60426;SDS011;46274;47.168;27.604;2022-12-07T09:31:47;23.80;;;9.40;;
60426;SDS011;46274;47.168;27.604;2022-12-07T09:37:58;18.67;;;8.80;;
60426;SDS011;46274;47.168;27.604;2022-12-07T09:44:23;20.27;;;8.93;;
60426;SDS011;46274;47.168;27.604;2022-12-07T09:50:39;22.03;;;8.20;;
60426;SDS011;46274;47.168;27.604;2022-12-07T09:56:53;34.50;;;11.27;;
60426;SDS011;46274;47.168;27.604;2022-12-07T10:03:22;16.60;;;7.27;;
60426;SDS011;46274;47.168;27.604;2022-12-07T10:24:05;21.33;;;10.43;;
60426;SDS011;46274;47.168;27.604;2022-12-07T10:30:59;40.57;;;13.57;;
60426;SDS011;46274;47.168;27.604;2022-12-07T10:37:52;32.63;;;12.40;;
60426;SDS011;46274;47.168;27.604;2022-12-07T10:44:36;32.10;;;13.77;;
60426;SDS011;46274;47.168;27.604;2022-12-07T10:51:07;29.27;;;11.80;;
60426;SDS011;46274;47.168;27.604;2022-12-07T11:05:02;63.00;;;19.03;;
60426;SDS011;46274;47.168;27.604;2022-12-07T11:30:23;38.07;;;16.67;;
60426;SDS011;46274;47.168;27.604;2022-12-07T11:37:21;52.40;;;22.73;;
60426;SDS011;46274;47.168;27.604;2022-12-07T11:44:06;35.63;;;15.43;;
60426;SDS011;46274;47.168;27.604;2022-12-07T11:50:32;42.80;;;16.60;;
60426;SDS011;46274;47.168;27.604;2022-12-07T11:56:39;30.63;;;13.10;;
60426;SDS011;46274;47.168;27.604;2022-12-07T12:09:18;25.33;;;11.87;;
60426;SDS011;46274;47.168;27.604;2022-12-07T12:15:51;36.67;;;16.33;;
60426;SDS011;46274;47.168;27.604;2022-12-07T12:22:18;35.47;;;17.10;;
60426;SDS011;46274;47.168;27.604;2022-12-07T12:28:58;36.27;;;17.63;;
60426;SDS011;46274;47.168;27.604;2022-12-07T12:35:31;36.47;;;17.57;;
60426;SDS011;46274;47.168;27.604;2022-12-07T12:41:51;30.60;;;15.27;;
60426;SDS011;46274;47.168;27.604;2022-12-07T12:48:29;26.20;;;13.63;;
60426;SDS011;46274;47.168;27.604;2022-12-07T13:01:36;33.67;;;15.50;;
60426;SDS011;46274;47.168;27.604;2022-12-07T13:27:55;32.57;;;15.87;;
60426;SDS011;46274;47.168;27.604;2022-12-07T13:34:30;37.53;;;17.27;;
60426;SDS011;46274;47.168;27.604;2022-12-07T13:41:34;32.03;;;15.47;;
60426;SDS011;46274;47.168;27.604;2022-12-07T13:47:53;31.17;;;16.20;;
60426;SDS011;46274;47.168;27.604;2022-12-07T13:54:12;38.70;;;19.03;;
60426;SDS011;46274;47.168;27.604;2022-12-07T14:00:55;36.47;;;18.27;;
60426;SDS011;46274;47.168;27.604;2022-12-07T14:22:39;45.40;;;16.77;;
60426;SDS011;46274;47.168;27.604;2022-12-07T14:29:21;61.77;;;18.53;;
60426;SDS011;46274;47.168;27.604;2022-12-07T14:43:30;61.93;;;18.27;;
60426;SDS011;46274;47.168;27.604;2022-12-07T14:50:01;65.00;;;20.00;;
60426;SDS011;46274;47.168;27.604;2022-12-07T15:03:56;35.57;;;16.27;;
60426;SDS011;46274;47.168;27.604;2022-12-07T15:10:22;382.53;;;23.20;;
60426;SDS011;46274;47.168;27.604;2022-12-07T15:16:44;27.83;;;13.57;;
60426;SDS011;46274;47.168;27.604;2022-12-07T15:23:18;37.40;;;14.90;;
60426;SDS011;46274;47.168;27.604;2022-12-07T15:29:49;90.97;;;14.93;;
60426;SDS011;46274;47.168;27.604;2022-12-07T15:36:24;105.20;;;28.50;;
60426;SDS011;46274;47.168;27.604;2022-12-07T15:42:39;42.83;;;15.63;;
60426;SDS011;46274;47.168;27.604;2022-12-07T15:49:41;162.43;;;26.10;;
60426;SDS011;46274;47.168;27.604;2022-12-07T15:56:40;26.63;;;12.30;;
60426;SDS011;46274;47.168;27.604;2022-12-07T16:02:59;153.77;;;29.87;;
60426;SDS011;46274;47.168;27.604;2022-12-07T16:09:38;39.77;;;21.17;;
60426;SDS011;46274;47.168;27.604;2022-12-07T16:15:49;58.97;;;13.97;;
60426;SDS011;46274;47.168;27.604;2022-12-07T16:29:38;17.63;;;9.47;;
60426;SDS011;46274;47.168;27.604;2022-12-07T16:36:17;264.10;;;17.07;;
60426;SDS011;46274;47.168;27.604;2022-12-07T16:42:51;55.53;;;21.00;;
60426;SDS011;46274;47.168;27.604;2022-12-07T16:49:35;39.87;;;13.03;;
60426;SDS011;46274;47.168;27.604;2022-12-07T16:56:02;51.00;;;12.40;;
60426;SDS011;46274;47.168;27.604;2022-12-07T17:02:50;128.17;;;17.83;;
60426;SDS011;46274;47.168;27.604;2022-12-07T17:09:03;33.80;;;11.93;;
60426;SDS011;46274;47.168;27.604;2022-12-07T17:15:40;49.30;;;14.83;;
60426;SDS011;46274;47.168;27.604;2022-12-07T17:23:00;126.07;;;23.13;;
60426;SDS011;46274;47.168;27.604;2022-12-07T17:37:36;346.57;;;29.70;;
60426;SDS011;46274;47.168;27.604;2022-12-07T17:44:31;253.73;;;49.67;;
60426;SDS011;46274;47.168;27.604;2022-12-07T17:50:54;45.03;;;21.00;;
60426;SDS011;46274;47.168;27.604;2022-12-07T17:57:45;47.23;;;19.37;;
60426;SDS011;46274;47.168;27.604;2022-12-07T18:04:35;43.83;;;21.30;;
60426;SDS011;46274;47.168;27.604;2022-12-07T18:11:21;44.73;;;20.10;;
60426;SDS011;46274;47.168;27.604;2022-12-07T18:18:01;44.97;;;20.97;;
60426;SDS011;46274;47.168;27.604;2022-12-07T18:24:12;54.23;;;24.37;;
60426;SDS011;46274;47.168;27.604;2022-12-07T18:30:39;53.60;;;24.13;;
60426;SDS011;46274;47.168;27.604;2022-12-07T18:37:18;54.07;;;25.50;;
60426;SDS011;46274;47.168;27.604;2022-12-07T18:43:44;62.40;;;27.87;;
60426;SDS011;46274;47.168;27.604;2022-12-07T18:50:17;74.47;;;31.87;;
60426;SDS011;46274;47.168;27.604;2022-12-07T18:56:44;65.50;;;30.30;;
60426;SDS011;46274;47.168;27.604;2022-12-07T19:02:53;57.10;;;27.13;;
60426;SDS011;46274;47.168;27.604;2022-12-07T19:09:21;82.70;;;39.33;;
60426;SDS011;46274;47.168;27.604;2022-12-07T19:15:41;131.13;;;58.33;;
60426;SDS011;46274;47.168;27.604;2022-12-07T19:21:52;128.73;;;54.93;;
60426;SDS011;46274;47.168;27.604;2022-12-07T19:28:07;89.47;;;42.27;;
60426;SDS011;46274;47.168;27.604;2022-12-07T19:34:19;77.57;;;34.90;;
60426;SDS011;46274;47.168;27.604;2022-12-07T19:40:41;68.13;;;30.33;;
60426;SDS011;46274;47.168;27.604;2022-12-07T19:47:04;53.33;;;25.23;;
60426;SDS011;46274;47.168;27.604;2022-12-07T19:53:11;34.60;;;16.27;;
60426;SDS011;46274;47.168;27.604;2022-12-07T19:59:47;89.80;;;38.53;;
60426;SDS011;46274;47.168;27.604;2022-12-07T20:06:14;81.23;;;37.83;;
60426;SDS011;46274;47.168;27.604;2022-12-07T20:12:39;100.97;;;42.83;;
60426;SDS011;46274;47.168;27.604;2022-12-07T20:19:04;50.27;;;22.47;;
60426;SDS011;46274;47.168;27.604;2022-12-07T20:25:54;46.67;;;22.03;;
60426;SDS011;46274;47.168;27.604;2022-12-07T20:32:31;46.47;;;23.50;;
60426;SDS011;46274;47.168;27.604;2022-12-07T20:39:44;35.77;;;17.43;;
60426;SDS011;46274;47.168;27.604;2022-12-07T20:46:10;51.40;;;23.20;;
60426;SDS011;46274;47.168;27.604;2022-12-07T20:52:18;41.20;;;19.90;;
60426;SDS011;46274;47.168;27.604;2022-12-07T20:58:24;40.30;;;19.27;;
60426;SDS011;46274;47.168;27.604;2022-12-07T21:04:50;68.00;;;30.43;;
60426;SDS011;46274;47.168;27.604;2022-12-07T21:11:10;153.30;;;62.27;;
60426;SDS011;46274;47.168;27.604;2022-12-07T21:17:17;55.47;;;26.20;;
60426;SDS011;46274;47.168;27.604;2022-12-07T21:23:41;53.33;;;23.73;;
60426;SDS011;46274;47.168;27.604;2022-12-07T21:30:14;54.77;;;24.37;;
60426;SDS011;46274;47.168;27.604;2022-12-07T21:36:18;41.97;;;20.33;;
60426;SDS011;46274;47.168;27.604;2022-12-07T21:42:55;39.67;;;17.30;;
60426;SDS011;46274;47.168;27.604;2022-12-07T21:49:37;58.13;;;27.03;;
60426;SDS011;46274;47.168;27.604;2022-12-07T21:56:36;31.87;;;16.00;;
60426;SDS011;46274;47.168;27.604;2022-12-07T22:02:54;40.00;;;17.70;;
60426;SDS011;46274;47.168;27.604;2022-12-07T22:09:29;38.70;;;17.57;;
60426;SDS011;46274;47.168;27.604;2022-12-07T22:15:39;24.97;;;11.97;;
60426;SDS011;46274;47.168;27.604;2022-12-07T22:21:50;63.10;;;26.10;;
60426;SDS011;46274;47.168;27.604;2022-12-07T22:28:23;51.97;;;21.63;;
60426;SDS011;46274;47.168;27.604;2022-12-07T22:34:51;47.70;;;20.83;;
60426;SDS011;46274;47.168;27.604;2022-12-07T22:47:42;40.33;;;17.10;;
60426;SDS011;46274;47.168;27.604;2022-12-07T22:54:16;40.00;;;18.30;;
60426;SDS011;46274;47.168;27.604;2022-12-07T23:00:22;44.20;;;19.97;;
60426;SDS011;46274;47.168;27.604;2022-12-07T23:06:56;83.90;;;28.33;;
60426;SDS011;46274;47.168;27.604;2022-12-07T23:21:22;78.97;;;29.63;;
60426;SDS011;46274;47.168;27.604;2022-12-07T23:27:45;51.63;;;21.70;;
60426;SDS011;46274;47.168;27.604;2022-12-07T23:33:52;52.50;;;24.40;;
60426;SDS011;46274;47.168;27.604;2022-12-07T23:40:21;43.13;;;17.97;;
60426;SDS011;46274;47.168;27.604;2022-12-07T23:46:55;39.87;;;18.10;;
60426;SDS011;46274;47.168;27.604;2022-12-07T23:53:53;32.17;;;14.63;;
